sensor_id;sensor_type;location;lat;lon;timestamp;P1;durP1;ratioP1;P2;durP2;ratioP2
21030;SDS011;61072;47.808;7.636;2022-11-20T00:01:23;6.85;;;3.78;;
21030;SDS011;61072;47.808;7.636;2022-11-20T00:03:51;6.20;;;3.25;;
21030;SDS011;61072;47.808;7.636;2022-11-20T00:06:19;5.85;;;3.25;;
21030;SDS011;61072;47.808;7.636;2022-11-20T00:08:47;6.30;;;3.30;;
21030;SDS011;61072;47.808;7.636;2022-11-20T00:11:15;5.10;;;3.35;;
21030;SDS011;61072;47.808;7.636;2022-11-20T00:13:44;6.38;;;3.42;;
21030;SDS011;61072;47.808;7.636;2022-11-20T00:16:13;3.70;;;3.17;;
21030;SDS011;61072;47.808;7.636;2022-11-20T00:18:41;6.57;;;3.80;;
21030;SDS011;61072;47.808;7.636;2022-11-20T00:21:21;7.03;;;3.67;;
21030;SDS011;61072;47.808;7.636;2022-11-20T00:23:50;5.90;;;4.55;;
21030;SDS011;61072;47.808;7.636;2022-11-20T00:26:20;6.70;;;3.50;;
21030;SDS011;61072;47.808;7.636;2022-11-20T00:28:53;5.68;;;3.63;;
21030;SDS011;61072;47.808;7.636;2022-11-20T00:31:21;4.95;;;3.42;;
21030;SDS011;61072;47.808;7.636;2022-11-20T00:33:48;6.97;;;3.40;;
21030;SDS011;61072;47.808;7.636;2022-11-20T00:36:17;5.13;;;4.07;;
21030;SDS011;61072;47.808;7.636;2022-11-20T00:38:45;8.43;;;3.72;;
21030;SDS011;61072;47.808;7.636;2022-11-20T00:41:13;9.05;;;4.93;;
21030;SDS011;61072;47.808;7.636;2022-11-20T00:43:41;4.07;;;3.47;;
21030;SDS011;61072;47.808;7.636;2022-11-20T00:46:10;5.07;;;3.45;;
21030;SDS011;61072;47.808;7.636;2022-11-20T00:48:41;5.05;;;3.38;;
21030;SDS011;61072;47.808;7.636;2022-11-20T00:51:09;6.45;;;3.75;;
21030;SDS011;61072;47.808;7.636;2022-11-20T00:53:38;7.67;;;3.53;;
21030;SDS011;61072;47.808;7.636;2022-11-20T00:56:06;9.13;;;3.47;;
21030;SDS011;61072;47.808;7.636;2022-11-20T00:58:34;5.57;;;3.15;;
21030;SDS011;61072;47.808;7.636;2022-11-20T01:01:04;10.48;;;3.67;;
21030;SDS011;61072;47.808;7.636;2022-11-20T01:03:37;4.43;;;3.15;;
21030;SDS011;61072;47.808;7.636;2022-11-20T01:08:34;4.57;;;3.08;;
21030;SDS011;61072;47.808;7.636;2022-11-20T01:11:06;8.02;;;3.70;;
21030;SDS011;61072;47.808;7.636;2022-11-20T01:13:36;6.10;;;3.28;;
21030;SDS011;61072;47.808;7.636;2022-11-20T01:16:04;7.93;;;3.25;;
21030;SDS011;61072;47.808;7.636;2022-11-20T01:18:46;5.32;;;2.90;;
21030;SDS011;61072;47.808;7.636;2022-11-20T01:21:15;7.80;;;3.25;;
21030;SDS011;61072;47.808;7.636;2022-11-20T01:23:46;8.52;;;2.95;;
21030;SDS011;61072;47.808;7.636;2022-11-20T01:26:24;9.10;;;2.80;;
21030;SDS011;61072;47.808;7.636;2022-11-20T01:28:53;5.15;;;3.47;;
21030;SDS011;61072;47.808;7.636;2022-11-20T01:31:21;6.22;;;3.50;;
21030;SDS011;61072;47.808;7.636;2022-11-20T01:34:00;8.73;;;3.30;;
21030;SDS011;61072;47.808;7.636;2022-11-20T01:36:29;6.75;;;3.35;;
21030;SDS011;61072;47.808;7.636;2022-11-20T01:38:58;5.40;;;2.85;;
21030;SDS011;61072;47.808;7.636;2022-11-20T01:41:30;5.32;;;2.90;;
21030;SDS011;61072;47.808;7.636;2022-11-20T01:44:17;8.13;;;3.25;;
21030;SDS011;61072;47.808;7.636;2022-11-20T01:46:56;8.35;;;2.92;;
21030;SDS011;61072;47.808;7.636;2022-11-20T01:52:15;7.10;;;3.10;;
21030;SDS011;61072;47.808;7.636;2022-11-20T01:54:51;5.13;;;3.20;;
21030;SDS011;61072;47.808;7.636;2022-11-20T01:57:25;5.43;;;3.05;;
21030;SDS011;61072;47.808;7.636;2022-11-20T01:59:56;8.10;;;3.20;;
21030;SDS011;61072;47.808;7.636;2022-11-20T02:02:26;4.85;;;2.85;;
21030;SDS011;61072;47.808;7.636;2022-11-20T02:04:54;7.05;;;2.78;;
21030;SDS011;61072;47.808;7.636;2022-11-20T02:07:24;5.88;;;3.50;;
21030;SDS011;61072;47.808;7.636;2022-11-20T02:09:51;5.90;;;3.40;;
21030;SDS011;61072;47.808;7.636;2022-11-20T02:12:23;6.07;;;3.40;;
21030;SDS011;61072;47.808;7.636;2022-11-20T02:15:09;11.50;;;4.18;;
21030;SDS011;61072;47.808;7.636;2022-11-20T02:17:36;7.38;;;4.47;;
21030;SDS011;61072;47.808;7.636;2022-11-20T02:20:03;8.13;;;3.63;;
21030;SDS011;61072;47.808;7.636;2022-11-20T02:22:31;7.55;;;2.88;;
21030;SDS011;61072;47.808;7.636;2022-11-20T02:25:07;7.03;;;3.60;;
21030;SDS011;61072;47.808;7.636;2022-11-20T02:27:36;6.22;;;3.58;;
21030;SDS011;61072;47.808;7.636;2022-11-20T02:30:03;8.48;;;3.55;;
21030;SDS011;61072;47.808;7.636;2022-11-20T02:32:34;6.45;;;3.40;;
21030;SDS011;61072;47.808;7.636;2022-11-20T02:35:09;5.43;;;3.35;;
21030;SDS011;61072;47.808;7.636;2022-11-20T02:37:57;5.72;;;3.22;;
21030;SDS011;61072;47.808;7.636;2022-11-20T02:40:27;5.85;;;3.90;;
21030;SDS011;61072;47.808;7.636;2022-11-20T02:42:54;9.25;;;4.85;;
21030;SDS011;61072;47.808;7.636;2022-11-20T02:45:22;7.93;;;4.38;;
21030;SDS011;61072;47.808;7.636;2022-11-20T02:47:50;7.93;;;4.95;;
21030;SDS011;61072;47.808;7.636;2022-11-20T02:50:17;9.70;;;4.53;;
21030;SDS011;61072;47.808;7.636;2022-11-20T02:52:44;12.88;;;4.55;;
21030;SDS011;61072;47.808;7.636;2022-11-20T02:55:11;9.40;;;4.72;;
21030;SDS011;61072;47.808;7.636;2022-11-20T02:57:38;10.57;;;4.95;;
21030;SDS011;61072;47.808;7.636;2022-11-20T03:00:05;8.30;;;5.03;;
21030;SDS011;61072;47.808;7.636;2022-11-20T03:02:33;6.50;;;4.13;;
21030;SDS011;61072;47.808;7.636;2022-11-20T03:05:00;5.88;;;4.22;;
21030;SDS011;61072;47.808;7.636;2022-11-20T03:07:26;8.10;;;4.72;;
21030;SDS011;61072;47.808;7.636;2022-11-20T03:09:53;7.88;;;4.75;;
21030;SDS011;61072;47.808;7.636;2022-11-20T03:12:20;9.07;;;5.05;;
21030;SDS011;61072;47.808;7.636;2022-11-20T03:14:47;12.30;;;5.47;;
21030;SDS011;61072;47.808;7.636;2022-11-20T03:17:18;8.07;;;4.80;;
21030;SDS011;61072;47.808;7.636;2022-11-20T03:19:44;10.90;;;4.82;;
21030;SDS011;61072;47.808;7.636;2022-11-20T03:22:11;8.98;;;4.82;;
21030;SDS011;61072;47.808;7.636;2022-11-20T03:24:38;9.35;;;4.68;;
21030;SDS011;61072;47.808;7.636;2022-11-20T03:27:04;15.52;;;4.90;;
21030;SDS011;61072;47.808;7.636;2022-11-20T03:29:31;5.88;;;4.30;;
21030;SDS011;61072;47.808;7.636;2022-11-20T03:31:58;8.57;;;4.40;;
21030;SDS011;61072;47.808;7.636;2022-11-20T03:34:25;7.47;;;3.80;;
21030;SDS011;61072;47.808;7.636;2022-11-20T03:36:51;7.07;;;4.75;;
21030;SDS011;61072;47.808;7.636;2022-11-20T03:39:18;8.73;;;4.40;;
21030;SDS011;61072;47.808;7.636;2022-11-20T03:41:45;8.13;;;4.25;;
21030;SDS011;61072;47.808;7.636;2022-11-20T03:44:12;6.35;;;4.10;;
21030;SDS011;61072;47.808;7.636;2022-11-20T03:46:39;7.05;;;4.45;;
21030;SDS011;61072;47.808;7.636;2022-11-20T03:49:06;6.60;;;3.95;;
21030;SDS011;61072;47.808;7.636;2022-11-20T03:51:33;4.47;;;3.17;;
21030;SDS011;61072;47.808;7.636;2022-11-20T03:54:03;7.50;;;3.25;;
21030;SDS011;61072;47.808;7.636;2022-11-20T03:56:32;5.80;;;3.47;;
21030;SDS011;61072;47.808;7.636;2022-11-20T03:59:00;5.40;;;3.55;;
21030;SDS011;61072;47.808;7.636;2022-11-20T04:01:29;4.85;;;3.47;;
21030;SDS011;61072;47.808;7.636;2022-11-20T04:03:58;4.75;;;3.67;;
21030;SDS011;61072;47.808;7.636;2022-11-20T04:06:29;5.68;;;3.72;;
21030;SDS011;61072;47.808;7.636;2022-11-20T04:09:00;5.63;;;2.90;;
21030;SDS011;61072;47.808;7.636;2022-11-20T04:11:27;6.28;;;3.20;;
21030;SDS011;61072;47.808;7.636;2022-11-20T04:13:56;5.85;;;3.00;;
21030;SDS011;61072;47.808;7.636;2022-11-20T04:16:25;8.18;;;3.78;;
21030;SDS011;61072;47.808;7.636;2022-11-20T04:18:53;5.43;;;3.50;;
21030;SDS011;61072;47.808;7.636;2022-11-20T04:21:24;4.70;;;3.30;;
21030;SDS011;61072;47.808;7.636;2022-11-20T04:23:52;7.85;;;3.60;;
21030;SDS011;61072;47.808;7.636;2022-11-20T04:26:19;5.43;;;3.78;;
21030;SDS011;61072;47.808;7.636;2022-11-20T04:28:47;5.63;;;4.65;;
21030;SDS011;61072;47.808;7.636;2022-11-20T04:31:16;5.47;;;4.00;;
21030;SDS011;61072;47.808;7.636;2022-11-20T04:33:44;7.30;;;4.28;;
21030;SDS011;61072;47.808;7.636;2022-11-20T04:36:18;6.43;;;4.20;;
21030;SDS011;61072;47.808;7.636;2022-11-20T04:38:52;6.13;;;4.00;;
21030;SDS011;61072;47.808;7.636;2022-11-20T04:41:23;4.80;;;3.47;;
21030;SDS011;61072;47.808;7.636;2022-11-20T04:43:56;5.97;;;3.22;;
21030;SDS011;61072;47.808;7.636;2022-11-20T04:46:26;6.32;;;3.83;;
21030;SDS011;61072;47.808;7.636;2022-11-20T04:48:53;4.75;;;3.25;;
21030;SDS011;61072;47.808;7.636;2022-11-20T04:51:20;8.00;;;3.08;;
21030;SDS011;61072;47.808;7.636;2022-11-20T04:53:47;6.15;;;3.35;;
21030;SDS011;61072;47.808;7.636;2022-11-20T04:56:14;5.55;;;2.80;;
21030;SDS011;61072;47.808;7.636;2022-11-20T04:58:41;6.50;;;3.25;;
21030;SDS011;61072;47.808;7.636;2022-11-20T05:01:15;4.47;;;3.08;;
21030;SDS011;61072;47.808;7.636;2022-11-20T05:03:43;4.25;;;2.83;;
21030;SDS011;61072;47.808;7.636;2022-11-20T05:06:11;7.05;;;2.90;;
21030;SDS011;61072;47.808;7.636;2022-11-20T05:08:39;5.65;;;2.63;;
21030;SDS011;61072;47.808;7.636;2022-11-20T05:11:08;3.40;;;2.30;;
21030;SDS011;61072;47.808;7.636;2022-11-20T05:13:36;5.68;;;2.97;;
21030;SDS011;61072;47.808;7.636;2022-11-20T05:16:04;4.95;;;2.58;;
21030;SDS011;61072;47.808;7.636;2022-11-20T05:18:36;5.85;;;2.97;;
21030;SDS011;61072;47.808;7.636;2022-11-20T05:21:04;4.18;;;2.67;;
21030;SDS011;61072;47.808;7.636;2022-11-20T05:23:31;7.55;;;2.70;;
21030;SDS011;61072;47.808;7.636;2022-11-20T05:25:58;3.03;;;2.65;;
21030;SDS011;61072;47.808;7.636;2022-11-20T05:28:26;3.28;;;2.15;;
21030;SDS011;61072;47.808;7.636;2022-11-20T05:30:54;3.92;;;2.90;;
21030;SDS011;61072;47.808;7.636;2022-11-20T05:33:21;4.10;;;2.33;;
21030;SDS011;61072;47.808;7.636;2022-11-20T05:35:48;3.22;;;2.25;;
21030;SDS011;61072;47.808;7.636;2022-11-20T05:38:15;2.70;;;1.98;;
21030;SDS011;61072;47.808;7.636;2022-11-20T05:40:42;3.15;;;1.90;;
21030;SDS011;61072;47.808;7.636;2022-11-20T05:43:08;3.35;;;2.40;;
21030;SDS011;61072;47.808;7.636;2022-11-20T05:45:35;3.30;;;2.42;;
21030;SDS011;61072;47.808;7.636;2022-11-20T05:48:02;3.13;;;2.25;;
21030;SDS011;61072;47.808;7.636;2022-11-20T05:50:29;2.35;;;1.75;;
21030;SDS011;61072;47.808;7.636;2022-11-20T05:52:59;5.10;;;2.35;;
21030;SDS011;61072;47.808;7.636;2022-11-20T05:55:26;2.53;;;1.90;;
21030;SDS011;61072;47.808;7.636;2022-11-20T05:57:53;5.63;;;1.90;;
21030;SDS011;61072;47.808;7.636;2022-11-20T06:00:21;3.47;;;2.13;;
21030;SDS011;61072;47.808;7.636;2022-11-20T06:02:48;3.53;;;1.80;;
21030;SDS011;61072;47.808;7.636;2022-11-20T06:05:15;2.65;;;1.80;;
21030;SDS011;61072;47.808;7.636;2022-11-20T06:07:42;2.35;;;1.77;;
21030;SDS011;61072;47.808;7.636;2022-11-20T06:10:09;2.20;;;1.70;;
21030;SDS011;61072;47.808;7.636;2022-11-20T06:12:36;3.65;;;1.67;;
21030;SDS011;61072;47.808;7.636;2022-11-20T06:15:03;2.42;;;2.03;;
21030;SDS011;61072;47.808;7.636;2022-11-20T06:17:30;3.13;;;1.55;;
21030;SDS011;61072;47.808;7.636;2022-11-20T06:19:57;4.00;;;2.10;;
21030;SDS011;61072;47.808;7.636;2022-11-20T06:22:24;3.28;;;1.45;;
21030;SDS011;61072;47.808;7.636;2022-11-20T06:24:50;2.40;;;1.73;;
21030;SDS011;61072;47.808;7.636;2022-11-20T06:27:17;1.95;;;1.52;;
21030;SDS011;61072;47.808;7.636;2022-11-20T06:29:44;2.10;;;1.60;;
21030;SDS011;61072;47.808;7.636;2022-11-20T06:32:10;2.22;;;1.48;;
21030;SDS011;61072;47.808;7.636;2022-11-20T06:34:37;4.78;;;1.60;;
21030;SDS011;61072;47.808;7.636;2022-11-20T06:37:04;1.63;;;1.45;;
21030;SDS011;61072;47.808;7.636;2022-11-20T06:39:31;1.75;;;1.50;;
21030;SDS011;61072;47.808;7.636;2022-11-20T06:41:58;3.55;;;1.50;;
21030;SDS011;61072;47.808;7.636;2022-11-20T06:44:25;2.58;;;1.65;;
21030;SDS011;61072;47.808;7.636;2022-11-20T06:46:52;2.75;;;1.60;;
21030;SDS011;61072;47.808;7.636;2022-11-20T06:49:18;3.13;;;1.50;;
21030;SDS011;61072;47.808;7.636;2022-11-20T06:51:46;2.45;;;1.40;;
21030;SDS011;61072;47.808;7.636;2022-11-20T06:54:12;2.78;;;1.63;;
21030;SDS011;61072;47.808;7.636;2022-11-20T06:56:39;1.75;;;1.60;;
21030;SDS011;61072;47.808;7.636;2022-11-20T06:59:06;2.25;;;1.60;;
21030;SDS011;61072;47.808;7.636;2022-11-20T07:01:33;1.85;;;1.20;;
21030;SDS011;61072;47.808;7.636;2022-11-20T07:04:01;5.32;;;1.80;;
21030;SDS011;61072;47.808;7.636;2022-11-20T07:06:29;3.67;;;1.55;;
21030;SDS011;61072;47.808;7.636;2022-11-20T07:08:56;3.40;;;1.73;;
21030;SDS011;61072;47.808;7.636;2022-11-20T07:11:23;2.10;;;1.42;;
21030;SDS011;61072;47.808;7.636;2022-11-20T07:13:49;6.38;;;2.22;;
21030;SDS011;61072;47.808;7.636;2022-11-20T07:16:16;2.25;;;1.77;;
21030;SDS011;61072;47.808;7.636;2022-11-20T07:18:43;3.63;;;2.22;;
21030;SDS011;61072;47.808;7.636;2022-11-20T07:21:15;2.13;;;1.70;;
21030;SDS011;61072;47.808;7.636;2022-11-20T07:23:42;6.00;;;2.10;;
21030;SDS011;61072;47.808;7.636;2022-11-20T07:26:09;1.55;;;1.42;;
21030;SDS011;61072;47.808;7.636;2022-11-20T07:28:37;4.05;;;1.85;;
21030;SDS011;61072;47.808;7.636;2022-11-20T07:31:04;2.22;;;1.63;;
21030;SDS011;61072;47.808;7.636;2022-11-20T07:33:32;2.22;;;1.92;;
21030;SDS011;61072;47.808;7.636;2022-11-20T07:36:00;3.70;;;2.17;;
21030;SDS011;61072;47.808;7.636;2022-11-20T07:38:27;5.40;;;2.78;;
21030;SDS011;61072;47.808;7.636;2022-11-20T07:40:54;10.98;;;3.45;;
21030;SDS011;61072;47.808;7.636;2022-11-20T07:43:23;6.60;;;2.88;;
21030;SDS011;61072;47.808;7.636;2022-11-20T07:45:51;2.60;;;1.90;;
21030;SDS011;61072;47.808;7.636;2022-11-20T07:48:17;2.58;;;1.40;;
21030;SDS011;61072;47.808;7.636;2022-11-20T07:50:44;1.88;;;1.33;;
21030;SDS011;61072;47.808;7.636;2022-11-20T07:53:11;2.10;;;1.38;;
21030;SDS011;61072;47.808;7.636;2022-11-20T07:55:39;3.88;;;1.40;;
21030;SDS011;61072;47.808;7.636;2022-11-20T07:58:06;3.00;;;1.70;;
21030;SDS011;61072;47.808;7.636;2022-11-20T08:00:33;1.45;;;1.10;;
21030;SDS011;61072;47.808;7.636;2022-11-20T08:03:02;4.55;;;1.45;;
21030;SDS011;61072;47.808;7.636;2022-11-20T08:05:30;3.25;;;1.60;;
21030;SDS011;61072;47.808;7.636;2022-11-20T08:07:57;2.85;;;1.30;;
21030;SDS011;61072;47.808;7.636;2022-11-20T08:10:23;3.30;;;1.63;;
21030;SDS011;61072;47.808;7.636;2022-11-20T08:12:51;1.48;;;1.27;;
21030;SDS011;61072;47.808;7.636;2022-11-20T08:15:39;2.90;;;1.58;;
21030;SDS011;61072;47.808;7.636;2022-11-20T08:18:07;2.58;;;1.40;;
21030;SDS011;61072;47.808;7.636;2022-11-20T08:20:56;3.83;;;2.00;;
21030;SDS011;61072;47.808;7.636;2022-11-20T08:23:23;5.55;;;1.83;;
21030;SDS011;61072;47.808;7.636;2022-11-20T08:25:50;2.00;;;1.50;;
21030;SDS011;61072;47.808;7.636;2022-11-20T08:28:17;2.45;;;1.55;;
21030;SDS011;61072;47.808;7.636;2022-11-20T08:30:47;1.88;;;1.40;;
21030;SDS011;61072;47.808;7.636;2022-11-20T08:33:14;2.33;;;1.60;;
21030;SDS011;61072;47.808;7.636;2022-11-20T08:35:41;3.22;;;1.65;;
21030;SDS011;61072;47.808;7.636;2022-11-20T08:38:09;4.53;;;2.42;;
21030;SDS011;61072;47.808;7.636;2022-11-20T08:40:35;3.03;;;1.85;;
21030;SDS011;61072;47.808;7.636;2022-11-20T08:43:02;2.72;;;1.83;;
21030;SDS011;61072;47.808;7.636;2022-11-20T08:45:29;5.10;;;1.85;;
21030;SDS011;61072;47.808;7.636;2022-11-20T08:47:59;2.42;;;1.67;;
21030;SDS011;61072;47.808;7.636;2022-11-20T08:50:27;3.53;;;1.80;;
21030;SDS011;61072;47.808;7.636;2022-11-20T08:52:53;3.83;;;1.60;;
21030;SDS011;61072;47.808;7.636;2022-11-20T08:55:20;3.83;;;1.60;;
21030;SDS011;61072;47.808;7.636;2022-11-20T08:57:47;3.13;;;1.73;;
21030;SDS011;61072;47.808;7.636;2022-11-20T09:00:16;2.33;;;1.52;;
21030;SDS011;61072;47.808;7.636;2022-11-20T09:02:43;3.33;;;2.03;;
21030;SDS011;61072;47.808;7.636;2022-11-20T09:05:10;6.47;;;1.65;;
21030;SDS011;61072;47.808;7.636;2022-11-20T09:07:36;4.15;;;2.10;;
21030;SDS011;61072;47.808;7.636;2022-11-20T09:10:03;2.42;;;2.05;;
21030;SDS011;61072;47.808;7.636;2022-11-20T09:12:51;2.88;;;1.92;;
21030;SDS011;61072;47.808;7.636;2022-11-20T09:15:18;3.90;;;1.58;;
21030;SDS011;61072;47.808;7.636;2022-11-20T09:17:52;3.67;;;1.88;;
21030;SDS011;61072;47.808;7.636;2022-11-20T09:20:20;4.38;;;1.58;;
21030;SDS011;61072;47.808;7.636;2022-11-20T09:22:47;3.33;;;1.90;;
21030;SDS011;61072;47.808;7.636;2022-11-20T09:25:14;2.92;;;1.85;;
21030;SDS011;61072;47.808;7.636;2022-11-20T09:27:41;3.17;;;2.00;;
21030;SDS011;61072;47.808;7.636;2022-11-20T09:30:09;3.38;;;1.90;;
21030;SDS011;61072;47.808;7.636;2022-11-20T09:32:38;4.43;;;2.10;;
21030;SDS011;61072;47.808;7.636;2022-11-20T09:35:05;7.03;;;2.95;;
21030;SDS011;61072;47.808;7.636;2022-11-20T09:37:32;8.48;;;4.80;;
21030;SDS011;61072;47.808;7.636;2022-11-20T09:39:59;5.90;;;3.45;;
21030;SDS011;61072;47.808;7.636;2022-11-20T09:42:42;6.78;;;3.45;;
21030;SDS011;61072;47.808;7.636;2022-11-20T09:50:35;4.40;;;2.42;;
21030;SDS011;61072;47.808;7.636;2022-11-20T09:53:17;5.25;;;2.15;;
21030;SDS011;61072;47.808;7.636;2022-11-20T09:56:02;5.15;;;2.85;;
21030;SDS011;61072;47.808;7.636;2022-11-20T09:58:40;5.97;;;3.42;;
21030;SDS011;61072;47.808;7.636;2022-11-20T10:06:24;6.60;;;3.95;;
21030;SDS011;61072;47.808;7.636;2022-11-20T10:11:52;6.70;;;3.50;;
21030;SDS011;61072;47.808;7.636;2022-11-20T10:31:31;8.45;;;3.53;;
21030;SDS011;61072;47.808;7.636;2022-11-20T10:34:03;4.88;;;2.70;;
21030;SDS011;61072;47.808;7.636;2022-11-20T10:36:39;4.60;;;2.70;;
21030;SDS011;61072;47.808;7.636;2022-11-20T10:41:50;3.45;;;2.22;;
21030;SDS011;61072;47.808;7.636;2022-11-20T10:44:20;5.35;;;2.13;;
21030;SDS011;61072;47.808;7.636;2022-11-20T10:47:15;7.53;;;2.38;;
21030;SDS011;61072;47.808;7.636;2022-11-20T10:49:43;5.10;;;2.35;;
21030;SDS011;61072;47.808;7.636;2022-11-20T10:52:33;5.93;;;2.10;;
21030;SDS011;61072;47.808;7.636;2022-11-20T10:55:21;5.38;;;2.00;;
21030;SDS011;61072;47.808;7.636;2022-11-20T10:58:17;4.60;;;1.58;;
21030;SDS011;61072;47.808;7.636;2022-11-20T11:00:57;4.43;;;1.63;;
21030;SDS011;61072;47.808;7.636;2022-11-20T11:03:30;3.47;;;1.50;;
21030;SDS011;61072;47.808;7.636;2022-11-20T11:06:08;2.30;;;1.40;;
21030;SDS011;61072;47.808;7.636;2022-11-20T11:08:42;3.28;;;1.60;;
21030;SDS011;61072;47.808;7.636;2022-11-20T11:11:31;4.05;;;1.50;;
21030;SDS011;61072;47.808;7.636;2022-11-20T11:14:08;2.90;;;1.95;;
21030;SDS011;61072;47.808;7.636;2022-11-20T11:16:44;6.13;;;1.58;;
21030;SDS011;61072;47.808;7.636;2022-11-20T11:19:16;2.42;;;1.52;;
21030;SDS011;61072;47.808;7.636;2022-11-20T11:21:47;4.78;;;1.85;;
21030;SDS011;61072;47.808;7.636;2022-11-20T11:24:24;3.75;;;1.98;;
21030;SDS011;61072;47.808;7.636;2022-11-20T11:27:12;3.85;;;1.98;;
21030;SDS011;61072;47.808;7.636;2022-11-20T11:29:43;5.95;;;2.38;;
21030;SDS011;61072;47.808;7.636;2022-11-20T11:32:14;3.75;;;2.42;;
21030;SDS011;61072;47.808;7.636;2022-11-20T11:35:03;4.22;;;2.30;;
21030;SDS011;61072;47.808;7.636;2022-11-20T11:37:44;5.03;;;3.35;;
21030;SDS011;61072;47.808;7.636;2022-11-20T11:40:13;9.13;;;3.95;;
21030;SDS011;61072;47.808;7.636;2022-11-20T11:42:51;6.00;;;2.28;;
21030;SDS011;61072;47.808;7.636;2022-11-20T11:45:20;5.43;;;2.50;;
21030;SDS011;61072;47.808;7.636;2022-11-20T11:47:48;6.03;;;2.78;;
21030;SDS011;61072;47.808;7.636;2022-11-20T11:50:19;7.50;;;2.90;;
21030;SDS011;61072;47.808;7.636;2022-11-20T11:58:20;3.75;;;2.03;;
21030;SDS011;61072;47.808;7.636;2022-11-20T12:04:14;6.03;;;1.77;;
21030;SDS011;61072;47.808;7.636;2022-11-20T12:07:00;5.13;;;1.90;;
21030;SDS011;61072;47.808;7.636;2022-11-20T12:09:56;3.50;;;1.38;;
21030;SDS011;61072;47.808;7.636;2022-11-20T12:12:26;7.10;;;1.70;;
21030;SDS011;61072;47.808;7.636;2022-11-20T12:14:56;2.53;;;1.33;;
21030;SDS011;61072;47.808;7.636;2022-11-20T12:17:24;2.90;;;1.20;;
21030;SDS011;61072;47.808;7.636;2022-11-20T12:19:51;3.65;;;1.35;;
21030;SDS011;61072;47.808;7.636;2022-11-20T12:22:22;2.38;;;1.30;;
21030;SDS011;61072;47.808;7.636;2022-11-20T12:30:18;2.22;;;1.05;;
21030;SDS011;61072;47.808;7.636;2022-11-20T12:35:54;1.55;;;0.90;;
21030;SDS011;61072;47.808;7.636;2022-11-20T12:38:45;2.58;;;0.98;;
21030;SDS011;61072;47.808;7.636;2022-11-20T12:41:43;2.67;;;1.15;;
21030;SDS011;61072;47.808;7.636;2022-11-20T12:44:55;2.92;;;0.90;;
21030;SDS011;61072;47.808;7.636;2022-11-20T12:47:57;1.90;;;0.95;;
21030;SDS011;61072;47.808;7.636;2022-11-20T12:50:38;1.63;;;1.00;;
21030;SDS011;61072;47.808;7.636;2022-11-20T12:53:44;1.60;;;0.90;;
21030;SDS011;61072;47.808;7.636;2022-11-20T12:56:35;2.63;;;0.98;;
21030;SDS011;61072;47.808;7.636;2022-11-20T13:08:08;4.47;;;1.40;;
21030;SDS011;61072;47.808;7.636;2022-11-20T13:19:04;1.50;;;1.10;;
21030;SDS011;61072;47.808;7.636;2022-11-20T13:21:35;2.63;;;1.23;;
21030;SDS011;61072;47.808;7.636;2022-11-20T13:24:07;8.57;;;3.75;;
21030;SDS011;61072;47.808;7.636;2022-11-20T13:29:28;5.63;;;1.85;;
21030;SDS011;61072;47.808;7.636;2022-11-20T13:34:54;6.53;;;1.63;;
21030;SDS011;61072;47.808;7.636;2022-11-20T13:37:31;3.50;;;1.10;;
21030;SDS011;61072;47.808;7.636;2022-11-20T13:45:24;4.38;;;1.05;;
21030;SDS011;61072;47.808;7.636;2022-11-20T13:47:53;1.48;;;1.00;;
21030;SDS011;61072;47.808;7.636;2022-11-20T13:50:23;6.45;;;2.00;;
21030;SDS011;61072;47.808;7.636;2022-11-20T14:01:58;2.40;;;1.15;;
21030;SDS011;61072;47.808;7.636;2022-11-20T14:04:29;1.40;;;1.10;;
21030;SDS011;61072;47.808;7.636;2022-11-20T14:06:59;2.83;;;1.63;;
21030;SDS011;61072;47.808;7.636;2022-11-20T14:09:29;4.00;;;1.58;;
21030;SDS011;61072;47.808;7.636;2022-11-20T14:12:01;3.80;;;1.67;;
21030;SDS011;61072;47.808;7.636;2022-11-20T14:14:30;2.97;;;1.40;;
21030;SDS011;61072;47.808;7.636;2022-11-20T14:17:09;3.92;;;1.65;;
21030;SDS011;61072;47.808;7.636;2022-11-20T14:19:59;2.42;;;1.60;;
21030;SDS011;61072;47.808;7.636;2022-11-20T14:22:31;4.53;;;1.77;;
21030;SDS011;61072;47.808;7.636;2022-11-20T14:25:05;6.25;;;2.35;;
21030;SDS011;61072;47.808;7.636;2022-11-20T14:27:39;6.05;;;2.08;;
21030;SDS011;61072;47.808;7.636;2022-11-20T14:30:12;4.72;;;1.73;;
21030;SDS011;61072;47.808;7.636;2022-11-20T14:32:41;5.60;;;2.30;;
21030;SDS011;61072;47.808;7.636;2022-11-20T14:35:13;5.22;;;2.28;;
21030;SDS011;61072;47.808;7.636;2022-11-20T14:37:46;4.70;;;1.60;;
21030;SDS011;61072;47.808;7.636;2022-11-20T14:43:16;5.85;;;1.30;;
21030;SDS011;61072;47.808;7.636;2022-11-20T14:46:07;3.03;;;1.25;;
21030;SDS011;61072;47.808;7.636;2022-11-20T14:48:36;2.28;;;1.35;;
21030;SDS011;61072;47.808;7.636;2022-11-20T14:51:34;2.78;;;0.82;;
21030;SDS011;61072;47.808;7.636;2022-11-20T14:54:11;7.57;;;1.63;;
21030;SDS011;61072;47.808;7.636;2022-11-20T14:56:54;4.93;;;2.00;;
21030;SDS011;61072;47.808;7.636;2022-11-20T14:59:31;3.60;;;1.85;;
21030;SDS011;61072;47.808;7.636;2022-11-20T15:02:00;4.38;;;1.20;;
21030;SDS011;61072;47.808;7.636;2022-11-20T15:04:47;2.60;;;1.20;;
21030;SDS011;61072;47.808;7.636;2022-11-20T15:07:50;1.25;;;1.08;;
21030;SDS011;61072;47.808;7.636;2022-11-20T15:10:13;2.13;;;1.25;;
21030;SDS011;61072;47.808;7.636;2022-11-20T15:12:51;3.33;;;1.10;;
21030;SDS011;61072;47.808;7.636;2022-11-20T15:15:36;6.30;;;1.23;;
21030;SDS011;61072;47.808;7.636;2022-11-20T15:18:15;3.67;;;1.27;;
21030;SDS011;61072;47.808;7.636;2022-11-20T15:20:44;3.70;;;1.02;;
21030;SDS011;61072;47.808;7.636;2022-11-20T15:23:12;3.20;;;1.15;;
21030;SDS011;61072;47.808;7.636;2022-11-20T15:25:40;2.95;;;1.00;;
21030;SDS011;61072;47.808;7.636;2022-11-20T15:28:18;2.22;;;1.40;;
21030;SDS011;61072;47.808;7.636;2022-11-20T15:30:47;2.95;;;1.30;;
21030;SDS011;61072;47.808;7.636;2022-11-20T15:33:16;3.90;;;1.40;;
21030;SDS011;61072;47.808;7.636;2022-11-20T15:35:43;0.98;;;0.63;;
21030;SDS011;61072;47.808;7.636;2022-11-20T15:38:10;2.53;;;1.02;;
21030;SDS011;61072;47.808;7.636;2022-11-20T15:40:37;2.35;;;0.70;;
21030;SDS011;61072;47.808;7.636;2022-11-20T15:43:04;1.55;;;0.80;;
21030;SDS011;61072;47.808;7.636;2022-11-20T15:45:39;2.53;;;0.98;;
21030;SDS011;61072;47.808;7.636;2022-11-20T15:48:30;2.65;;;1.10;;
21030;SDS011;61072;47.808;7.636;2022-11-20T15:51:04;3.13;;;1.15;;
21030;SDS011;61072;47.808;7.636;2022-11-20T15:53:32;2.63;;;1.33;;
21030;SDS011;61072;47.808;7.636;2022-11-20T15:55:59;4.95;;;1.48;;
21030;SDS011;61072;47.808;7.636;2022-11-20T15:58:26;5.93;;;2.92;;
21030;SDS011;61072;47.808;7.636;2022-11-20T16:00:53;10.30;;;4.60;;
21030;SDS011;61072;47.808;7.636;2022-11-20T16:03:20;7.95;;;4.13;;
21030;SDS011;61072;47.808;7.636;2022-11-20T16:05:47;6.60;;;3.20;;
21030;SDS011;61072;47.808;7.636;2022-11-20T16:08:14;3.47;;;1.83;;
21030;SDS011;61072;47.808;7.636;2022-11-20T16:10:41;4.63;;;1.60;;
21030;SDS011;61072;47.808;7.636;2022-11-20T16:13:11;4.22;;;1.80;;
21030;SDS011;61072;47.808;7.636;2022-11-20T16:18:27;7.07;;;2.05;;
21030;SDS011;61072;47.808;7.636;2022-11-20T16:20:54;6.13;;;1.90;;
21030;SDS011;61072;47.808;7.636;2022-11-20T16:23:21;4.32;;;1.42;;
21030;SDS011;61072;47.808;7.636;2022-11-20T16:25:48;3.75;;;3.10;;
21030;SDS011;61072;47.808;7.636;2022-11-20T16:28:16;5.60;;;1.63;;
21030;SDS011;61072;47.808;7.636;2022-11-20T16:30:44;2.70;;;1.20;;
21030;SDS011;61072;47.808;7.636;2022-11-20T16:33:13;2.10;;;1.30;;
21030;SDS011;61072;47.808;7.636;2022-11-20T16:35:41;2.65;;;1.67;;
21030;SDS011;61072;47.808;7.636;2022-11-20T16:38:08;4.00;;;1.58;;
21030;SDS011;61072;47.808;7.636;2022-11-20T16:40:35;3.38;;;1.83;;
21030;SDS011;61072;47.808;7.636;2022-11-20T16:43:09;5.97;;;1.77;;
21030;SDS011;61072;47.808;7.636;2022-11-20T16:45:40;3.90;;;1.48;;
21030;SDS011;61072;47.808;7.636;2022-11-20T16:48:15;4.45;;;1.67;;
21030;SDS011;61072;47.808;7.636;2022-11-20T16:50:48;2.17;;;1.00;;